Time;durP1;ratioP1;P1;durP2;ratioP2;P2;SDS_P1;SDS_P2;PMS_P1;PMS_P2;Temp;Humidity;BMP_temperature;BMP_pressure;BME280_temperature;BME280_humidity;BME280_pressure;Samples;Min_cycle;Max_cycle;Signal;HPM_P1;HPM_P2
2022/04/24 00:00:01;;;;;;;4.60;2.78;;;14.60;53.80;;;;;;5093451;28;20024;-73
2022/04/24 00:02:27;;;;;;;9.00;2.38;;;14.50;53.80;;;;;;5093627;28;20067;-72
2022/04/24 00:04:53;;;;;;;3.78;2.65;;;14.50;53.90;;;;;;5093912;28;20085;-72
2022/04/24 00:07:19;;;;;;;5.28;2.55;;;14.40;54.10;;;;;;5093728;28;20032;-73
2022/04/24 00:09:45;;;;;;;4.97;2.95;;;14.40;54.20;;;;;;5093490;28;20039;-72
2022/04/24 00:12:15;;;;;;;4.95;2.63;;;14.40;54.30;;;;;;5093807;28;20059;-72
2022/04/24 00:14:45;;;;;;;5.65;3.13;;;14.30;54.20;;;;;;5093769;28;20495;-72
2022/04/24 00:17:12;;;;;;;6.25;3.63;;;14.40;54.50;;;;;;5075477;28;20107;-72
2022/04/24 00:19:39;;;;;;;7.60;3.13;;;14.40;54.50;;;;;;5058698;28;20051;-73
2022/04/24 00:22:05;;;;;;;4.60;3.10;;;14.20;54.40;;;;;;5075480;28;20055;-73
2022/04/24 00:24:32;;;;;;;5.45;3.08;;;14.30;54.70;;;;;;5093873;28;20036;-72
2022/04/24 00:26:58;;;;;;;5.05;3.53;;;14.20;54.80;;;;;;5093418;28;20024;-73
2022/04/24 00:29:24;;;;;;;6.28;3.47;;;14.20;55.00;;;;;;5093396;28;20032;-73
2022/04/24 00:31:50;;;;;;;5.63;3.33;;;14.10;55.10;;;;;;5093271;28;20099;-73
2022/04/24 00:34:16;;;;;;;4.65;3.20;;;14.10;55.20;;;;;;5093513;28;20107;-72
2022/04/24 00:36:42;;;;;;;5.05;3.45;;;14.10;55.30;;;;;;5093314;28;20380;-72
2022/04/24 00:39:08;;;;;;;5.50;3.60;;;14.10;55.50;;;;;;5093603;28;20024;-71
2022/04/24 00:41:33;;;;;;;6.10;3.67;;;14.00;55.50;;;;;;5094681;28;20051;-72
2022/04/24 00:43:59;;;;;;;5.93;3.67;;;14.00;55.70;;;;;;5062447;28;20119;-73
2022/04/24 00:46:42;;;;;;;4.90;3.35;;;14.00;55.80;;;;;;5097271;28;20104;-72
2022/04/24 00:49:11;;;;;;;5.43;3.55;;;13.90;55.90;;;;;;5097590;28;20044;-72
2022/04/24 00:51:42;;;;;;;5.65;3.17;;;13.90;55.90;;;;;;5097625;28;20407;-72
2022/04/24 00:54:08;;;;;;;7.80;4.07;;;13.90;56.00;;;;;;5097153;28;20024;-72
2022/04/24 00:56:39;;;;;;;6.88;4.28;;;13.80;56.10;;;;;;5096970;28;20099;-72
2022/04/24 00:59:07;;;;;;;5.53;3.80;;;13.80;56.30;;;;;;5079109;28;20039;-72
2022/04/24 01:01:33;;;;;;;5.75;3.65;;;13.80;56.40;;;;;;5097125;28;20111;-71
2022/04/24 01:04:01;;;;;;;6.18;3.35;;;13.80;56.60;;;;;;5096868;28;20115;-72
2022/04/24 01:06:36;;;;;;;6.50;4.03;;;13.70;56.60;;;;;;5096869;28;20031;-73
2022/04/24 01:09:30;;;;;;;7.30;4.05;;;13.70;56.90;;;;;;5097060;28;20468;-73
2022/04/24 01:11:56;;;;;;;6.63;4.28;;;13.60;57.10;;;;;;5076925;28;20036;-72
2022/04/24 01:14:27;;;;;;;5.82;3.97;;;13.60;57.00;;;;;;5096581;28;20024;-72
2022/04/24 01:16:54;;;;;;;6.15;4.65;;;13.60;57.20;;;;;;5078464;28;20016;-73
2022/04/24 01:19:20;;;;;;;7.05;4.30;;;13.60;57.30;;;;;;5096608;28;20099;-72
2022/04/24 01:21:47;;;;;;;7.38;4.63;;;13.60;57.30;;;;;;5096707;28;20047;-72
2022/04/24 01:24:15;;;;;;;9.75;5.40;;;13.60;57.50;;;;;;5096622;28;20051;-72
2022/04/24 01:26:41;;;;;;;7.80;5.15;;;13.60;57.70;;;;;;5078374;28;20028;-72
2022/04/24 01:29:07;;;;;;;7.07;4.32;;;13.60;57.70;;;;;;5096730;28;20082;-73
2022/04/24 01:31:33;;;;;;;7.53;5.53;;;13.50;57.80;;;;;;5096901;28;20028;-73
2022/04/24 01:33:59;;;;;;;9.18;5.20;;;13.50;58.00;;;;;;5096894;28;20539;-72
2022/04/24 01:36:25;;;;;;;8.27;5.03;;;13.40;58.20;;;;;;5096483;28;20032;-72
2022/04/24 01:38:50;;;;;;;7.82;5.00;;;13.30;58.40;;;;;;5096581;28;20081;-72
2022/04/24 01:41:16;;;;;;;8.25;4.95;;;13.40;58.60;;;;;;5096263;28;20031;-72
2022/04/24 01:43:42;;;;;;;8.63;4.75;;;13.30;58.70;;;;;;5078290;28;20028;-72
2022/04/24 01:46:09;;;;;;;7.55;4.75;;;13.30;58.80;;;;;;5096367;28;20035;-73
2022/04/24 01:48:35;;;;;;;7.40;4.88;;;13.30;58.90;;;;;;5075737;28;20044;-72
2022/04/24 01:51:05;;;;;;;7.18;4.70;;;13.30;58.90;;;;;;5074684;28;20498;-72
2022/04/24 01:53:31;;;;;;;7.60;4.82;;;13.30;59.00;;;;;;5094353;28;20024;-72
2022/04/24 01:55:58;;;;;;;8.52;4.93;;;13.20;59.10;;;;;;5095287;28;20020;-72
2022/04/24 01:58:25;;;;;;;7.80;4.65;;;13.30;59.30;;;;;;5095493;28;20062;-72
2022/04/24 02:00:51;;;;;;;8.00;5.70;;;13.20;59.00;;;;;;5095912;28;20401;-72
2022/04/24 02:03:17;;;;;;;7.60;4.68;;;13.20;59.50;;;;;;5095790;28;20099;-73
2022/04/24 02:05:43;;;;;;;8.38;5.75;;;13.20;59.80;;;;;;5095738;28;20400;-72
2022/04/24 02:08:08;;;;;;;8.77;5.65;;;13.20;59.90;;;;;;5095908;28;20028;-73
2022/04/24 02:10:34;;;;;;;9.02;6.13;;;13.20;60.10;;;;;;5096019;28;20366;-72
2022/04/24 02:13:00;;;;;;;8.95;5.47;;;13.20;60.30;;;;;;5096097;28;20036;-72
2022/04/24 02:15:25;;;;;;;8.68;5.70;;;13.10;60.40;;;;;;5095591;28;20372;-72
2022/04/24 02:17:51;;;;;;;7.88;5.18;;;13.10;60.60;;;;;;5095855;28;20096;-73
2022/04/24 02:20:17;;;;;;;7.72;5.32;;;13.10;60.80;;;;;;5095336;28;20041;-72
2022/04/24 02:22:42;;;;;;;9.77;5.80;;;13.10;60.80;;;;;;5095848;28;20047;-72
2022/04/24 02:25:08;;;;;;;8.77;5.90;;;13.10;60.90;;;;;;5077228;28;20020;-73
2022/04/24 02:27:34;;;;;;;10.93;6.22;;;13.10;61.30;;;;;;5077253;28;20028;-73
2022/04/24 02:30:00;;;;;;;9.65;6.10;;;13.10;61.30;;;;;;5095848;28;20487;-72
2022/04/24 02:32:26;;;;;;;8.90;5.25;;;13.00;61.40;;;;;;5095420;28;20614;-73
2022/04/24 02:34:52;;;;;;;9.50;6.03;;;13.00;61.60;;;;;;5095300;28;20115;-72
2022/04/24 02:37:17;;;;;;;11.38;6.35;;;12.90;61.80;;;;;;5095582;28;20052;-72
2022/04/24 02:39:43;;;;;;;8.65;6.18;;;12.90;62.20;;;;;;5095305;28;20103;-71
2022/04/24 02:42:09;;;;;;;9.02;6.15;;;12.80;62.10;;;;;;5095670;28;20421;-73
2022/04/24 02:44:34;;;;;;;10.07;5.32;;;12.80;62.30;;;;;;5095018;28;20036;-72
2022/04/24 02:47:01;;;;;;;9.38;6.18;;;12.90;62.40;;;;;;5095409;28;20031;-71
2022/04/24 02:49:26;;;;;;;8.65;5.63;;;12.80;62.50;;;;;;5077254;28;20465;-72
2022/04/24 02:51:52;;;;;;;8.32;6.22;;;12.80;62.80;;;;;;5076933;28;20093;-73
2022/04/24 02:54:18;;;;;;;8.98;5.53;;;12.80;62.70;;;;;;5094781;28;20039;-72
2022/04/24 02:56:43;;;;;;;9.00;5.43;;;12.80;62.80;;;;;;5094975;28;20078;-72
2022/04/24 02:59:11;;;;;;;10.32;5.78;;;12.70;62.80;;;;;;5094687;28;20032;-71
2022/04/24 03:01:39;;;;;;;11.73;6.20;;;12.70;63.00;;;;;;5094790;28;20020;-72
2022/04/24 03:04:05;;;;;;;8.27;5.35;;;12.70;63.10;;;;;;5094615;28;20613;-71
2022/04/24 03:06:30;;;;;;;7.82;5.50;;;12.70;63.10;;;;;;5076640;28;20401;-73
2022/04/24 03:08:56;;;;;;;11.73;5.07;;;12.70;63.30;;;;;;5094578;28;20157;-72
2022/04/24 03:11:22;;;;;;;9.30;5.10;;;12.60;63.40;;;;;;5094643;28;20035;-72
2022/04/24 03:13:47;;;;;;;9.07;5.03;;;12.60;63.60;;;;;;5094314;28;20036;-71
2022/04/24 03:16:13;;;;;;;8.77;5.43;;;12.60;63.60;;;;;;5076526;28;20032;-72
2022/04/24 03:18:38;;;;;;;8.00;5.28;;;12.60;63.70;;;;;;5076502;28;20035;-71
2022/04/24 03:21:04;;;;;;;8.48;5.65;;;12.50;63.80;;;;;;5094314;28;20036;-71
2022/04/24 03:23:30;;;;;;;7.43;4.90;;;12.50;63.90;;;;;;5094527;28;20353;-72
2022/04/24 03:25:56;;;;;;;6.72;4.40;;;12.40;63.80;;;;;;5094386;28;20111;-72
2022/04/24 03:28:22;;;;;;;8.63;5.30;;;12.50;64.00;;;;;;5076332;28;20028;-78
2022/04/24 03:30:47;;;;;;;7.60;5.35;;;12.40;64.10;;;;;;5076096;28;20428;-78
2022/04/24 03:33:13;;;;;;;8.35;5.50;;;12.40;64.10;;;;;;5094159;28;20055;-78
2022/04/24 03:35:38;;;;;;;7.45;5.43;;;12.40;64.20;;;;;;5076067;28;20446;-77
2022/04/24 03:38:04;;;;;;;9.65;5.20;;;12.40;64.20;;;;;;5059278;28;20024;-77
2022/04/24 03:40:30;;;;;;;9.20;5.07;;;12.30;64.20;;;;;;5076255;28;20021;-77
2022/04/24 03:42:55;;;;;;;8.93;5.18;;;12.30;64.30;;;;;;5075832;28;20024;-77
2022/04/24 03:45:21;;;;;;;10.18;5.35;;;12.30;64.40;;;;;;5075683;28;20028;-77
2022/04/24 03:47:51;;;;;;;8.13;4.53;;;12.20;64.40;;;;;;5075850;28;20107;-78
2022/04/24 03:50:19;;;;;;;9.20;4.80;;;12.20;64.60;;;;;;5075859;28;20098;-78
2022/04/24 03:52:45;;;;;;;12.82;5.53;;;12.20;64.60;;;;;;5093943;28;20478;-77
2022/04/24 03:55:11;;;;;;;8.73;5.10;;;12.10;64.70;;;;;;5094144;28;20028;-78
2022/04/24 03:57:36;;;;;;;7.85;4.93;;;12.10;64.80;;;;;;5075725;28;20114;-78
2022/04/24 04:00:03;;;;;;;8.55;5.00;;;12.10;64.80;;;;;;5059000;28;20079;-78
2022/04/24 04:02:29;;;;;;;8.05;5.13;;;12.10;64.70;;;;;;5093817;28;20016;-78
2022/04/24 04:04:54;;;;;;;9.40;5.05;;;12.00;64.80;;;;;;5093880;28;20121;-77
2022/04/24 04:07:20;;;;;;;7.10;4.13;;;12.10;65.00;;;;;;5075486;28;20024;-77
2022/04/24 04:09:46;;;;;;;8.13;4.80;;;12.00;64.90;;;;;;5075860;28;20028;-78
2022/04/24 04:12:11;;;;;;;8.05;4.60;;;11.90;65.00;;;;;;5075822;28;20055;-77
2022/04/24 04:14:37;;;;;;;8.00;5.13;;;11.90;65.10;;;;;;5075257;28;20046;-77
2022/04/24 04:17:03;;;;;;;8.38;5.05;;;11.90;65.20;;;;;;5075347;28;20028;-77
2022/04/24 04:19:29;;;;;;;9.30;4.35;;;11.90;65.30;;;;;;5075357;28;20044;-77
2022/04/24 04:21:55;;;;;;;7.97;4.80;;;11.90;65.90;;;;;;5093285;28;20500;-77
2022/04/24 04:24:20;;;;;;;8.57;5.22;;;11.80;65.30;;;;;;5075358;28;20115;-77
2022/04/24 04:26:46;;;;;;;8.77;4.68;;;11.80;65.40;;;;;;5093351;28;20031;-78
2022/04/24 04:29:11;;;;;;;9.13;4.80;;;11.80;65.40;;;;;;5075335;28;20365;-78
2022/04/24 04:31:37;;;;;;;6.93;3.95;;;11.80;65.50;;;;;;5093393;28;20035;-77
2022/04/24 04:34:03;;;;;;;6.50;4.28;;;11.70;65.50;;;;;;5093659;28;20053;-77
2022/04/24 04:36:29;;;;;;;7.35;4.85;;;11.80;65.60;;;;;;5075319;28;20077;-77
2022/04/24 04:38:54;;;;;;;8.07;4.68;;;11.70;65.50;;;;;;5075377;28;20080;-78
2022/04/24 04:41:20;;;;;;;8.05;4.72;;;11.70;65.60;;;;;;5075420;28;20025;-78
2022/04/24 04:43:46;;;;;;;7.13;4.43;;;11.70;66.20;;;;;;5093377;28;20028;-77
2022/04/24 04:46:11;;;;;;;6.75;4.43;;;11.70;65.60;;;;;;5075376;28;20063;-77
2022/04/24 04:48:37;;;;;;;7.95;5.05;;;11.70;65.70;;;;;;5093225;28;20054;-78
2022/04/24 04:51:03;;;;;;;8.02;4.45;;;11.70;65.70;;;;;;5093223;28;20404;-77
2022/04/24 04:53:28;;;;;;;8.50;4.90;;;11.70;65.60;;;;;;5075009;28;20073;-77
2022/04/24 04:55:54;;;;;;;7.18;4.78;;;11.70;65.60;;;;;;5074989;28;20028;-78
2022/04/24 04:58:20;;;;;;;6.40;3.45;;;11.70;65.60;;;;;;5075180;28;20061;-77
2022/04/24 05:00:45;;;;;;;6.85;4.57;;;11.70;65.70;;;;;;5075051;28;20114;-78
2022/04/24 05:03:11;;;;;;;6.18;4.22;;;11.70;65.50;;;;;;5075053;28;20022;-78
2022/04/24 05:05:37;;;;;;;7.28;4.00;;;11.70;65.50;;;;;;5074983;28;20036;-78
2022/04/24 05:08:03;;;;;;;7.22;4.68;;;11.70;65.50;;;;;;5093399;28;20028;-77
2022/04/24 05:10:28;;;;;;;8.27;4.27;;;11.70;65.50;;;;;;5075237;28;20036;-77
2022/04/24 05:12:54;;;;;;;9.63;4.53;;;11.70;65.50;;;;;;5058328;28;20035;-78
2022/04/24 05:15:21;;;;;;;7.95;4.65;;;11.70;65.50;;;;;;5092944;28;20092;-80
2022/04/24 05:17:47;;;;;;;7.63;4.00;;;11.70;65.70;;;;;;5093003;28;20024;-79
2022/04/24 05:20:13;;;;;;;7.32;4.60;;;11.70;65.70;;;;;;5074683;28;20032;-80
2022/04/24 05:22:40;;;;;;;9.48;4.22;;;11.70;65.80;;;;;;5093244;28;20035;-80
2022/04/24 05:25:09;;;;;;;9.75;4.30;;;11.70;65.70;;;;;;5075133;28;20114;-78
2022/04/24 05:27:36;;;;;;;7.05;3.75;;;11.80;65.70;;;;;;5094116;28;20046;-79
2022/04/24 05:30:07;;;;;;;11.02;4.35;;;11.80;66.20;;;;;;5096617;28;20384;-78
2022/04/24 05:32:41;;;;;;;7.65;4.18;;;11.80;65.50;;;;;;5096563;28;20027;-74
2022/04/24 05:35:08;;;;;;;7.40;4.20;;;11.70;65.50;;;;;;5096863;28;20114;-73
2022/04/24 05:37:34;;;;;;;6.53;3.83;;;11.70;65.60;;;;;;5096611;28;20024;-71
2022/04/24 05:39:59;;;;;;;8.27;3.90;;;11.60;65.70;;;;;;5078134;28;20036;-74
2022/04/24 05:42:25;;;;;;;7.18;3.55;;;11.70;65.80;;;;;;5078418;28;20036;-73
2022/04/24 05:44:50;;;;;;;6.65;4.15;;;11.80;65.80;;;;;;5096336;28;20028;-72
2022/04/24 05:47:16;;;;;;;6.80;4.18;;;11.80;65.70;;;;;;5096218;28;20085;-73
2022/04/24 05:49:42;;;;;;;9.73;4.05;;;11.80;65.80;;;;;;5092125;28;20096;-71
2022/04/24 05:52:08;;;;;;;6.00;3.53;;;11.70;65.80;;;;;;5096211;28;20622;-72
2022/04/24 05:54:33;;;;;;;7.85;4.82;;;11.80;65.70;;;;;;5093741;28;20035;-73
2022/04/24 05:56:59;;;;;;;5.37;3.43;;;11.70;65.60;;;;;;5077809;28;20028;-74
2022/04/24 05:59:24;;;;;;;6.68;4.00;;;11.80;65.60;;;;;;5093588;28;20032;-73
2022/04/24 06:01:50;;;;;;;6.10;4.10;;;11.80;65.50;;;;;;5079513;28;20035;-72
2022/04/24 06:04:15;;;;;;;8.48;4.00;;;11.80;65.60;;;;;;5075387;28;20051;-71
2022/04/24 06:06:41;;;;;;;6.57;3.95;;;11.80;65.60;;;;;;5075219;28;20051;-74
2022/04/24 06:09:07;;;;;;;7.53;3.65;;;11.80;65.60;;;;;;5075907;28;20036;-73
2022/04/24 06:11:32;;;;;;;6.35;3.40;;;11.70;65.50;;;;;;5075435;28;20353;-73
2022/04/24 06:13:58;;;;;;;4.90;3.35;;;11.80;65.50;;;;;;5075384;28;20032;-72
2022/04/24 06:16:24;;;;;;;7.80;3.67;;;11.80;65.50;;;;;;5075172;28;20021;-72
2022/04/24 06:18:49;;;;;;;8.13;3.90;;;11.90;65.60;;;;;;5057202;28;20103;-72
2022/04/24 06:21:15;;;;;;;6.85;3.92;;;11.90;65.70;;;;;;5075465;28;20052;-72
2022/04/24 06:23:40;;;;;;;7.38;3.97;;;11.90;65.60;;;;;;5075444;28;20476;-73
2022/04/24 06:26:06;;;;;;;6.28;3.55;;;11.90;65.50;;;;;;5075484;28;20372;-72
2022/04/24 06:28:32;;;;;;;7.93;4.05;;;11.90;65.50;;;;;;5057328;28;20031;-72
2022/04/24 06:30:57;;;;;;;6.07;3.53;;;12.00;65.40;;;;;;5075378;28;20063;-72
2022/04/24 06:33:24;;;;;;;5.55;3.85;;;12.00;65.50;;;;;;5056982;28;20496;-72
2022/04/24 06:35:49;;;;;;;7.43;3.88;;;12.10;65.40;;;;;;5074754;28;20029;-72
2022/04/24 06:38:16;;;;;;;8.27;3.72;;;12.10;65.50;;;;;;5074989;28;20097;-72
2022/04/24 06:40:41;;;;;;;7.38;3.83;;;12.10;65.20;;;;;;5074232;28;20520;-72
2022/04/24 06:43:08;;;;;;;5.32;3.35;;;12.20;65.10;;;;;;5074980;28;20059;-73
2022/04/24 06:45:36;;;;;;;8.55;3.78;;;12.20;65.10;;;;;;5056675;28;20033;-73
2022/04/24 06:48:27;;;;;;;6.25;3.53;;;12.30;64.90;;;;;;5074681;28;20024;-73
2022/04/24 06:50:53;;;;;;;7.90;3.47;;;12.30;64.80;;;;;;5070866;28;20053;-73
2022/04/24 06:53:20;;;;;;;7.28;3.20;;;12.30;64.70;;;;;;5074667;28;20033;-73
2022/04/24 06:55:50;;;;;;;6.93;4.00;;;12.30;64.50;;;;;;5074653;28;20032;-73
2022/04/24 06:58:18;;;;;;;6.38;3.47;;;12.30;64.50;;;;;;5056429;28;20025;-73
2022/04/24 07:00:45;;;;;;;6.30;3.25;;;12.40;64.30;;;;;;5074774;28;20023;-74
2022/04/24 07:03:16;;;;;;;5.97;3.63;;;12.50;64.30;;;;;;5074410;28;20020;-73
2022/04/24 07:05:42;;;;;;;6.20;3.60;;;12.60;64.20;;;;;;5056955;28;20169;-73
2022/04/24 07:08:08;;;;;;;6.07;3.63;;;12.60;64.00;;;;;;5074614;28;20036;-74
2022/04/24 07:10:35;;;;;;;6.57;3.45;;;12.70;64.00;;;;;;5074309;28;20040;-73
2022/04/24 07:13:01;;;;;;;5.47;3.40;;;12.70;63.90;;;;;;5056524;28;20524;-73
2022/04/24 07:15:30;;;;;;;7.45;3.78;;;12.70;63.90;;;;;;5056763;28;20064;-73
2022/04/24 07:17:56;;;;;;;6.55;3.42;;;12.70;63.80;;;;;;5056025;28;20025;-74
2022/04/24 07:20:22;;;;;;;6.35;3.75;;;12.70;63.80;;;;;;5056024;28;20041;-73
2022/04/24 07:22:49;;;;;;;6.13;3.75;;;12.70;63.70;;;;;;5056107;28;20024;-73
2022/04/24 07:25:17;;;;;;;8.50;3.88;;;12.80;63.70;;;;;;5073872;28;20060;-73
2022/04/24 07:27:43;;;;;;;7.95;3.58;;;12.70;63.60;;;;;;5074416;28;20409;-72
2022/04/24 07:30:13;;;;;;;6.07;3.55;;;12.80;63.70;;;;;;5074196;28;20083;-72
2022/04/24 07:32:40;;;;;;;5.70;3.38;;;12.80;63.60;;;;;;5073907;28;20085;-73
2022/04/24 07:35:08;;;;;;;5.63;3.10;;;13.00;63.60;;;;;;5073662;28;20052;-71
2022/04/24 07:37:34;;;;;;;5.13;3.10;;;12.90;63.40;;;;;;5073948;28;20392;-71
2022/04/24 07:40:00;;;;;;;6.38;3.55;;;13.00;63.50;;;;;;5074058;28;20032;-73
2022/04/24 07:42:26;;;;;;;5.90;3.22;;;13.10;63.50;;;;;;5073492;28;20473;-74
2022/04/24 07:44:51;;;;;;;6.30;3.38;;;13.10;63.40;;;;;;5073560;28;20024;-74
2022/04/24 07:47:17;;;;;;;6.90;3.78;;;13.10;63.30;;;;;;5073880;28;20396;-74
2022/04/24 07:49:43;;;;;;;6.13;3.15;;;13.20;63.20;;;;;;5055816;28;20079;-74
2022/04/24 07:52:08;;;;;;;5.82;3.13;;;13.20;63.10;;;;;;5055227;28;20028;-74
2022/04/24 07:54:34;;;;;;;7.25;3.50;;;13.30;63.00;;;;;;5073676;28;20032;-74
2022/04/24 07:56:59;;;;;;;9.32;3.95;;;13.30;63.00;;;;;;5073793;28;20073;-74
2022/04/24 07:59:25;;;;;;;8.13;3.63;;;13.40;62.90;;;;;;5073447;28;20097;-74
2022/04/24 08:01:51;;;;;;;5.25;3.65;;;13.40;62.90;;;;;;5055451;28;20036;-75
2022/04/24 08:04:17;;;;;;;7.07;3.33;;;13.50;62.90;;;;;;5038593;28;20028;-74
2022/04/24 08:06:43;;;;;;;7.75;3.38;;;13.50;62.80;;;;;;5055175;28;20484;-75
2022/04/24 08:09:09;;;;;;;7.15;3.33;;;13.60;62.70;;;;;;5073555;28;20103;-75
2022/04/24 08:11:34;;;;;;;7.97;3.72;;;13.70;62.50;;;;;;5073340;28;20029;-74
2022/04/24 08:14:00;;;;;;;6.05;3.60;;;13.70;62.40;;;;;;5055604;28;20028;-74
2022/04/24 08:16:26;;;;;;;6.35;3.35;;;13.70;62.20;;;;;;5073004;28;20442;-74
2022/04/24 08:18:52;;;;;;;5.18;3.00;;;13.80;62.20;;;;;;5073221;28;20029;-73
2022/04/24 08:21:18;;;;;;;5.10;3.25;;;13.90;62.20;;;;;;5054957;28;20094;-75
2022/04/24 08:23:44;;;;;;;5.28;3.70;;;13.90;62.10;;;;;;5055255;28;20024;-73
2022/04/24 08:26:10;;;;;;;6.05;3.63;;;13.90;62.00;;;;;;5055239;28;20020;-74
2022/04/24 08:28:36;;;;;;;6.45;3.75;;;14.00;61.90;;;;;;5073070;28;20048;-74
2022/04/24 08:31:02;;;;;;;5.05;3.33;;;14.10;61.90;;;;;;5055466;28;20036;-74
2022/04/24 08:33:28;;;;;;;5.70;3.75;;;14.20;61.80;;;;;;5073355;28;20059;-75
2022/04/24 08:35:54;;;;;;;5.57;3.55;;;14.20;61.90;;;;;;5073468;28;20028;-74
2022/04/24 08:38:19;;;;;;;7.15;4.15;;;14.20;61.60;;;;;;5073040;28;20040;-74
2022/04/24 08:40:46;;;;;;;6.93;3.95;;;14.30;61.50;;;;;;5072950;28;20036;-74
2022/04/24 08:43:15;;;;;;;6.45;3.95;;;14.40;61.40;;;;;;5073229;28;20029;-74
2022/04/24 08:45:42;;;;;;;6.22;3.97;;;14.50;61.20;;;;;;5054968;28;20066;-74
2022/04/24 08:48:08;;;;;;;6.28;3.65;;;14.50;61.10;;;;;;5055538;28;20033;-74
2022/04/24 08:50:34;;;;;;;5.85;3.13;;;14.60;61.00;;;;;;5073026;28;20033;-75
2022/04/24 08:53:00;;;;;;;4.88;3.13;;;14.60;60.90;;;;;;5072986;28;20112;-74
2022/04/24 08:55:28;;;;;;;5.85;3.45;;;14.70;60.70;;;;;;5072967;28;20035;-73
2022/04/24 08:57:54;;;;;;;6.88;3.63;;;14.80;60.60;;;;;;5072884;28;20426;-74
2022/04/24 09:00:20;;;;;;;5.55;3.38;;;14.80;60.50;;;;;;5054813;28;20099;-75
2022/04/24 09:02:47;;;;;;;5.57;3.47;;;14.90;60.20;;;;;;5074061;28;20025;-75
2022/04/24 09:05:13;;;;;;;7.10;3.75;;;15.00;60.10;;;;;;5093371;28;20028;-73
2022/04/24 09:07:43;;;;;;;7.05;3.70;;;15.00;60.00;;;;;;5097041;28;20111;-74
2022/04/24 09:10:12;;;;;;;6.97;3.63;;;15.10;59.90;;;;;;5096464;28;20032;-74
2022/04/24 09:12:39;;;;;;;6.07;3.60;;;15.20;59.90;;;;;;5096814;28;20054;-72
2022/04/24 09:15:06;;;;;;;5.88;3.47;;;15.10;59.80;;;;;;5096902;28;20032;-72
2022/04/24 09:17:34;;;;;;;5.88;3.40;;;15.30;59.80;;;;;;5096591;28;20032;-71
2022/04/24 09:20:01;;;;;;;8.23;3.72;;;15.30;59.70;;;;;;5096933;28;20064;-74
2022/04/24 09:22:26;;;;;;;9.65;3.40;;;15.40;59.90;;;;;;5078698;28;20088;-72
2022/04/24 09:24:59;;;;;;;6.40;3.13;;;15.50;59.30;;;;;;5096480;28;20040;-75
2022/04/24 09:27:32;;;;;;;6.32;3.65;;;15.50;59.10;;;;;;5096510;28;20043;-75
2022/04/24 09:30:00;;;;;;;7.50;3.65;;;15.60;59.00;;;;;;5078186;28;20035;-76
2022/04/24 09:32:28;;;;;;;5.55;3.42;;;15.70;58.80;;;;;;5096226;28;20198;-73
2022/04/24 09:34:55;;;;;;;5.00;3.00;;;15.70;59.30;;;;;;5078035;28;20503;-73
2022/04/24 09:37:22;;;;;;;5.53;3.42;;;15.80;58.70;;;;;;5096126;28;20024;-72
2022/04/24 09:39:49;;;;;;;6.70;3.67;;;15.80;58.50;;;;;;5096149;28;20030;-76
2022/04/24 09:42:19;;;;;;;8.52;3.60;;;16.00;58.40;;;;;;5096553;28;20027;-74
2022/04/24 09:44:50;;;;;;;5.53;3.10;;;16.00;58.20;;;;;;5096340;28;20193;-75
2022/04/24 09:47:26;;;;;;;7.07;3.58;;;16.10;58.20;;;;;;5078124;28;20070;-74
2022/04/24 09:49:53;;;;;;;5.63;2.80;;;16.10;58.00;;;;;;5091457;28;20039;-76
2022/04/24 09:52:24;;;;;;;5.03;3.17;;;16.20;57.90;;;;;;5057555;28;20048;-74
2022/04/24 09:54:55;;;;;;;7.93;3.95;;;16.30;57.60;;;;;;5075161;28;20025;-75
2022/04/24 09:57:24;;;;;;;6.55;3.05;;;16.40;57.50;;;;;;5075805;28;20099;-76
2022/04/24 09:59:51;;;;;;;7.90;2.92;;;16.40;57.20;;;;;;5074365;28;20024;-74
2022/04/24 10:02:17;;;;;;;5.85;3.67;;;16.50;57.10;;;;;;5057560;28;20028;-75
2022/04/24 10:04:44;;;;;;;6.40;3.83;;;16.50;57.00;;;;;;5075614;28;20028;-74
2022/04/24 10:07:11;;;;;;;6.32;3.65;;;16.60;56.70;;;;;;5074307;28;20020;-75
2022/04/24 10:09:40;;;;;;;5.55;3.13;;;16.60;56.50;;;;;;5075571;28;20027;-74
2022/04/24 10:12:08;;;;;;;5.88;3.15;;;16.70;56.40;;;;;;5075514;28;20020;-74
2022/04/24 10:14:55;;;;;;;5.45;3.67;;;16.80;56.30;;;;;;5074785;28;20081;-75
2022/04/24 10:17:51;;;;;;;5.22;2.60;;;16.90;56.10;;;;;;5074058;28;20041;-75
2022/04/24 10:20:39;;;;;;;4.45;2.58;;;17.00;55.90;;;;;;5066630;28;20090;-75
2022/04/24 10:23:04;;;;;;;5.55;2.83;;;17.20;55.60;;;;;;5075258;28;20067;-74
2022/04/24 10:25:37;;;;;;;5.35;3.40;;;17.30;55.30;;;;;;5057069;28;20056;-74
2022/04/24 10:28:10;;;;;;;7.07;3.22;;;17.40;55.00;;;;;;5075354;28;20523;-74
2022/04/24 10:30:36;;;;;;;5.60;3.30;;;17.60;54.80;;;;;;5057021;28;20124;-74
2022/04/24 10:33:17;;;;;;;6.50;3.20;;;17.70;54.60;;;;;;5075166;28;20035;-75
2022/04/24 10:35:53;;;;;;;6.00;2.88;;;17.80;54.30;;;;;;5074690;28;20029;-76
2022/04/24 10:38:23;;;;;;;6.30;2.25;;;18.00;54.00;;;;;;5074994;28;20027;-77
2022/04/24 10:41:00;;;;;;;5.63;2.70;;;18.10;53.90;;;;;;5075214;28;20021;-74
2022/04/24 10:43:38;;;;;;;4.53;2.40;;;18.30;53.60;;;;;;5074973;28;20036;-75
2022/04/24 10:46:18;;;;;;;5.50;2.45;;;18.40;53.40;;;;;;5056879;28;20121;-75
2022/04/24 10:48:46;;;;;;;3.65;1.88;;;18.60;52.90;;;;;;5074666;28;20084;-74
2022/04/24 10:51:12;;;;;;;4.28;2.55;;;18.70;52.80;;;;;;5056611;28;20036;-74
2022/04/24 10:54:00;;;;;;;3.80;2.53;;;18.80;52.30;;;;;;5074406;28;20532;-73
2022/04/24 10:56:27;;;;;;;5.18;2.20;;;19.10;51.80;;;;;;5056301;28;20043;-75
2022/04/24 10:58:53;;;;;;;3.50;2.47;;;19.20;51.80;;;;;;5089984;28;20027;-75
2022/04/24 11:01:19;;;;;;;3.33;1.77;;;19.30;51.70;;;;;;5094998;28;20012;-76
2022/04/24 11:03:46;;;;;;;4.35;2.38;;;19.40;51.50;;;;;;5076566;28;20534;-74
2022/04/24 11:06:23;;;;;;;4.53;2.38;;;19.50;51.60;;;;;;5094172;28;20024;-74
2022/04/24 11:08:49;;;;;;;4.68;1.73;;;19.70;50.90;;;;;;5076326;28;20511;-75
2022/04/24 11:11:16;;;;;;;4.53;2.38;;;19.90;50.70;;;;;;5076580;28;20081;-74
2022/04/24 11:13:42;;;;;;;3.85;2.15;;;19.90;50.10;;;;;;5076243;28;20115;-75
2022/04/24 11:16:08;;;;;;;3.83;2.25;;;20.30;49.80;;;;;;5094849;28;20210;-74
2022/04/24 11:18:36;;;;;;;4.72;2.10;;;20.50;49.30;;;;;;5076242;28;20020;-74
2022/04/24 11:21:05;;;;;;;3.50;1.92;;;20.60;48.80;;;;;;5093967;28;20452;-74
2022/04/24 11:23:32;;;;;;;4.55;1.80;;;20.80;48.30;;;;;;5075991;28;20427;-75
2022/04/24 11:25:59;;;;;;;4.00;1.80;;;21.10;47.90;;;;;;5094036;28;20024;-75
2022/04/24 11:28:45;;;;;;;4.22;2.30;;;21.40;47.40;;;;;;5093955;28;20106;-75
2022/04/24 11:31:16;;;;;;;2.42;1.60;;;21.50;46.80;;;;;;5076255;28;20078;-75
2022/04/24 11:33:56;;;;;;;5.28;2.05;;;21.70;47.10;;;;;;5075988;28;20024;-75
2022/04/24 11:36:24;;;;;;;3.35;2.22;;;21.80;46.50;;;;;;5093777;28;20493;-75
2022/04/24 11:38:51;;;;;;;4.13;1.75;;;21.90;46.50;;;;;;5093990;28;20012;-74
2022/04/24 11:41:18;;;;;;;3.50;2.17;;;22.20;46.20;;;;;;5058890;28;20020;-73
2022/04/24 11:43:44;;;;;;;3.50;2.35;;;22.20;46.00;;;;;;5075613;28;20445;-75
2022/04/24 11:51:39;;;;;;;4.07;1.90;;;22.20;44.90;;;;;;5093470;28;20097;-75
2022/04/24 11:54:07;;;;;;;3.38;1.80;;;22.30;44.50;;;;;;5075179;28;20383;-74
2022/04/24 11:56:33;;;;;;;6.78;2.03;;;22.30;44.30;;;;;;5093248;28;20409;-74
2022/04/24 11:59:15;;;;;;;6.13;1.90;;;22.40;44.10;;;;;;5075344;28;20024;-74
2022/04/24 12:01:43;;;;;;;5.30;1.80;;;22.60;43.80;;;;;;5093371;28;20028;-75
2022/04/24 12:04:16;;;;;;;4.38;1.50;;;22.60;43.80;;;;;;5075078;28;20023;-74
2022/04/24 12:06:42;;;;;;;7.60;2.40;;;23.00;43.40;;;;;;5093482;28;20028;-76
2022/04/24 12:09:10;;;;;;;3.88;1.83;;;23.10;43.20;;;;;;5058781;28;20085;-73
2022/04/24 12:11:36;;;;;;;3.40;1.85;;;23.20;43.00;;;;;;5093292;28;20040;-75
2022/04/24 12:14:26;;;;;;;3.83;2.00;;;23.20;42.90;;;;;;5093643;28;20031;-73
2022/04/24 12:16:55;;;;;;;5.90;2.28;;;23.10;42.70;;;;;;5093100;28;20028;-74
2022/04/24 12:19:21;;;;;;;5.03;1.75;;;23.00;42.90;;;;;;5093482;28;20035;-74
2022/04/24 12:21:49;;;;;;;3.38;1.90;;;23.00;42.90;;;;;;5107329;28;20051;-75
2022/04/24 12:24:15;;;;;;;4.60;1.85;;;23.10;42.70;;;;;;5113660;28;20031;-75
2022/04/24 12:26:52;;;;;;;5.47;1.90;;;23.10;42.20;;;;;;5113569;28;20028;-76
2022/04/24 12:29:18;;;;;;;3.45;1.90;;;23.20;42.00;;;;;;5113705;28;20027;-75
2022/04/24 12:31:46;;;;;;;3.55;1.80;;;23.20;42.00;;;;;;5095493;28;20494;-75
2022/04/24 12:34:11;;;;;;;5.30;2.15;;;23.20;41.90;;;;;;5095172;28;20019;-73
2022/04/24 12:36:50;;;;;;;3.63;2.03;;;23.10;41.80;;;;;;5113343;28;20437;-74
2022/04/24 12:39:24;;;;;;;5.13;1.85;;;23.00;41.70;;;;;;5095525;28;20038;-74
2022/04/24 12:41:49;;;;;;;5.38;2.13;;;22.90;41.70;;;;;;5079448;28;20024;-74
2022/04/24 12:44:15;;;;;;;4.38;1.27;;;22.80;41.70;;;;;;5079274;28;20383;-75
2022/04/24 12:46:41;;;;;;;4.18;1.83;;;22.80;41.70;;;;;;5097099;28;20028;-74
2022/04/24 12:49:07;;;;;;;5.50;1.95;;;22.80;41.60;;;;;;5097422;28;20024;-75
2022/04/24 12:51:33;;;;;;;6.03;1.80;;;22.70;41.50;;;;;;5079193;28;20032;-75